Terminal Aerodrome Forecast
Issued by NWS Portland, OR

Home | Current Version | Previous Version | Text Only | Print | Product List | Glossary On
Versions: 1 2 3 4 5 6 7 8 9 10 11 12 13 14
000
FTUS46 KPQR 211144
TAFSLE
TAF
KSLE 211144Z 2112/2212 17012KT P6SM BKN050 OVC080
     FM211600 17014G24KT P6SM -RA OVC050
     FM212100 19013KT 4SM -RA BR OVC025
     FM220000 20010KT P6SM -SHRA BKN035 BKN050
     FM220300 20008KT P6SM VCSH BKN050=

USA.gov is the U.S. government's official web portal to all federal, state and local government web resources and services.